createdAt,value
2022-12-18T00:02:01.997Z,102207.28
2022-12-18T00:04:28.806Z,102208.59
2022-12-18T00:06:55.299Z,102189.06
2022-12-18T00:09:21.912Z,102187.91
2022-12-18T00:11:51.277Z,102199.66
2022-12-18T00:14:17.806Z,102204.28
2022-12-18T00:16:45.827Z,102210.34
2022-12-18T00:19:12.607Z,102204.53
2022-12-18T00:21:38.985Z,102210.84
2022-12-18T00:24:05.567Z,102207.16
2022-12-18T00:26:33.862Z,102205.19
2022-12-18T00:29:02.205Z,102208.72
2022-12-18T00:31:28.972Z,102211.22
2022-12-18T00:33:56.725Z,102220.47
2022-12-18T00:36:28.644Z,102214.81
2022-12-18T00:38:55.483Z,102223.38
2022-12-18T00:41:41.033Z,102217.06
2022-12-18T00:44:08.923Z,102218.13
2022-12-18T00:46:35.297Z,102218.44
2022-12-18T00:49:01.871Z,102219.63
2022-12-18T00:51:28.323Z,102218.94
2022-12-18T00:53:54.731Z,102221.84
2022-12-18T00:56:21.097Z,102223.66
2022-12-18T00:58:47.442Z,102225.78
2022-12-18T01:01:13.929Z,102218.41
2022-12-18T01:03:40.951Z,102224.09
2022-12-18T01:06:10.294Z,102217.09
2022-12-18T01:08:37.079Z,102200.97
2022-12-18T01:11:12.606Z,102206.16
2022-12-18T01:13:40.470Z,102203.47
2022-12-18T01:16:07.621Z,102202.03
2022-12-18T01:18:34.016Z,102201.47
2022-12-18T01:21:00.372Z,102199.75
2022-12-18T01:23:27.761Z,102220.34
2022-12-18T01:25:54.106Z,102219.16
2022-12-18T01:28:20.549Z,102215.34
2022-12-18T01:30:46.913Z,102214.63
2022-12-18T01:33:13.320Z,102219.81
2022-12-18T01:35:43.451Z,102221.00
2022-12-18T01:38:10.207Z,102215.09
2022-12-18T01:40:36.915Z,102213.22
2022-12-18T01:43:03.345Z,102209.44
2022-12-18T01:45:31.382Z,102208.16
2022-12-18T01:48:03.732Z,102207.59
2022-12-18T01:50:48.340Z,102203.59
2022-12-18T01:53:20.854Z,102185.97
2022-12-18T01:55:56.360Z,102190.31
2022-12-18T01:58:41.543Z,102214.97
2022-12-18T02:01:08.344Z,102208.75
2022-12-18T02:03:34.912Z,102225.03
2022-12-18T02:06:01.278Z,102216.34
2022-12-18T02:08:35.474Z,102213.88
2022-12-18T02:11:19.997Z,102209.69
2022-12-18T02:14:09.265Z,102207.59
2022-12-18T02:16:40.580Z,102208.66
2022-12-18T02:19:27.185Z,102205.75
2022-12-18T02:22:32.542Z,102188.63
2022-12-18T02:25:21.419Z,102181.88
2022-12-18T02:27:48.268Z,102184.25
2022-12-18T02:30:15.460Z,102174.69
2022-12-18T02:32:45.914Z,102181.19
2022-12-18T02:35:16.537Z,102180.75
2022-12-18T02:37:44.398Z,102177.34
2022-12-18T02:40:12.256Z,102180.28
2022-12-18T02:42:38.909Z,102183.00
2022-12-18T02:45:05.742Z,102188.56
2022-12-18T02:47:34.648Z,102180.13
2022-12-18T02:50:20.980Z,102188.94
2022-12-18T02:53:17.772Z,102176.81
2022-12-18T02:56:16.288Z,102185.69
2022-12-18T02:59:16.991Z,102175.16
2022-12-18T03:01:43.391Z,102180.72
2022-12-18T03:04:22.278Z,102180.06
2022-12-18T03:06:51.027Z,102183.13
2022-12-18T03:09:21.850Z,102187.91
2022-12-18T03:12:13.991Z,102187.91
2022-12-18T03:14:41.221Z,102179.16
2022-12-18T03:17:13.408Z,102183.28
2022-12-18T03:19:40.212Z,102182.00
2022-12-18T03:22:08.223Z,102183.56
2022-12-18T03:24:38.285Z,102186.19
2022-12-18T03:27:07.239Z,102178.59
2022-12-18T03:29:39.949Z,102187.19
2022-12-18T03:32:11.930Z,102188.84
2022-12-18T03:34:38.873Z,102179.59
2022-12-18T03:37:06.713Z,102175.63
2022-12-18T03:39:34.927Z,102175.44
2022-12-18T03:42:24.975Z,102182.41
2022-12-18T03:44:59.153Z,102172.44
2022-12-18T03:47:33.448Z,102171.28
2022-12-18T03:50:13.655Z,102171.19
2022-12-18T03:52:56.879Z,102173.91
2022-12-18T03:55:24.080Z,102170.81
2022-12-18T03:57:51.623Z,102176.41
2022-12-18T04:00:19.189Z,102180.38
2022-12-18T04:03:05.400Z,102175.22
2022-12-18T04:05:33.424Z,102176.19
2022-12-18T04:08:00.011Z,102181.59
2022-12-18T04:10:26.373Z,102180.06
2022-12-18T04:12:56.747Z,102176.75
2022-12-18T04:15:23.114Z,102177.19
2022-12-18T04:17:50.536Z,102175.34
2022-12-18T04:20:17.803Z,102167.66
2022-12-18T04:22:44.183Z,102165.94
2022-12-18T04:25:10.558Z,102170.56
2022-12-18T04:27:36.940Z,102158.91
2022-12-18T04:30:03.754Z,102167.09
2022-12-18T04:32:30.105Z,102162.16
2022-12-18T04:34:56.467Z,102166.91
2022-12-18T04:37:22.899Z,102170.19
2022-12-18T04:39:49.416Z,102168.41
2022-12-18T04:42:15.774Z,102169.19
2022-12-18T04:44:42.168Z,102168.53
2022-12-18T04:47:08.585Z,102163.94
2022-12-18T04:49:34.971Z,102169.47
2022-12-18T04:52:01.414Z,102168.31
2022-12-18T04:54:27.795Z,102163.25
2022-12-18T04:56:54.149Z,102173.81
2022-12-18T04:59:21.605Z,102161.53
2022-12-18T05:01:48.060Z,102172.03
2022-12-18T05:04:14.614Z,102162.78
2022-12-18T05:06:41.005Z,102164.75
2022-12-18T05:09:07.391Z,102152.00
2022-12-18T05:11:33.766Z,102158.88
2022-12-18T05:14:00.135Z,102154.78
2022-12-18T05:16:26.527Z,102153.66
2022-12-18T05:18:52.981Z,102143.63
2022-12-18T05:21:19.342Z,102135.69
2022-12-18T05:23:45.730Z,102136.38
2022-12-18T05:26:16.363Z,102137.16
2022-12-18T05:28:42.898Z,102134.38
2022-12-18T05:31:09.381Z,102134.13
2022-12-18T05:33:36.203Z,102137.31
2022-12-18T05:36:04.954Z,102129.34
2022-12-18T05:38:32.769Z,102122.53
2022-12-18T05:40:59.263Z,102125.13
2022-12-18T05:43:26.399Z,102133.44
2022-12-18T05:45:53.784Z,102125.22
2022-12-18T05:48:20.598Z,102130.63
2022-12-18T05:50:48.500Z,102127.72
2022-12-18T05:53:16.826Z,102142.50
2022-12-18T05:55:43.888Z,102146.22
2022-12-18T05:58:11.421Z,102149.31
2022-12-18T06:00:42.677Z,102153.41
2022-12-18T06:03:10.197Z,102150.00
2022-12-18T06:05:43.344Z,102154.16
2022-12-18T06:08:10.400Z,102164.69
2022-12-18T06:10:36.917Z,102157.53
2022-12-18T06:13:03.889Z,102159.75
2022-12-18T06:15:30.428Z,102159.88
2022-12-18T06:17:56.812Z,102171.56
2022-12-18T06:20:23.450Z,102169.50
2022-12-18T06:22:49.858Z,102185.72
2022-12-18T06:25:16.319Z,102180.44
2022-12-18T06:27:42.947Z,102185.22
2022-12-18T06:30:10.380Z,102183.38
2022-12-18T06:32:36.795Z,102190.25
2022-12-18T06:35:03.308Z,102178.69
2022-12-18T06:37:32.401Z,102181.00
2022-12-18T06:39:58.845Z,102180.19
2022-12-18T06:42:25.507Z,102182.50
2022-12-18T06:44:51.902Z,102184.13
2022-12-18T06:47:19.048Z,102181.66
2022-12-18T06:49:45.414Z,102178.97
2022-12-18T06:52:11.812Z,102170.03
2022-12-18T06:54:38.171Z,102171.72
2022-12-18T06:57:04.729Z,102169.47
2022-12-18T06:59:31.135Z,102176.59
2022-12-18T07:01:57.645Z,102171.19
2022-12-18T07:04:29.792Z,102169.06
2022-12-18T07:06:56.247Z,102164.34
2022-12-18T07:09:22.631Z,102159.75
2022-12-18T07:11:49.036Z,102158.91
2022-12-18T07:14:15.406Z,102156.78
2022-12-18T07:16:42.048Z,102163.63
2022-12-18T07:19:08.548Z,102161.91
2022-12-18T07:21:34.934Z,102155.06
2022-12-18T07:24:01.409Z,102153.91
2022-12-18T07:26:27.864Z,102154.19
2022-12-18T07:28:56.587Z,102156.44
2022-12-18T07:31:23.334Z,102150.00
2022-12-18T07:33:50.694Z,102156.19
2022-12-18T07:36:17.243Z,102145.38
2022-12-18T07:38:43.860Z,102131.94
2022-12-18T07:41:14.432Z,102138.53
2022-12-18T07:43:42.329Z,102141.44
2022-12-18T07:46:10.144Z,102137.84
2022-12-18T07:48:36.697Z,102145.50
2022-12-18T07:51:05.539Z,102143.69
2022-12-18T07:53:32.953Z,102137.09
2022-12-18T07:56:26.010Z,102144.06
2022-12-18T07:58:47.787Z,102143.81
2022-12-18T08:01:15.373Z,102158.34
2022-12-18T08:03:42.231Z,102163.75
2022-12-18T08:06:10.301Z,102152.13
2022-12-18T08:08:36.807Z,102151.06
2022-12-18T08:11:03.258Z,102145.00
2022-12-18T08:13:29.740Z,102139.16
2022-12-18T08:16:03.909Z,102138.78
2022-12-18T08:18:30.304Z,102129.78
2022-12-18T08:20:56.834Z,102129.25
2022-12-18T08:23:24.187Z,102132.53
2022-12-18T08:25:52.883Z,102126.22
2022-12-18T08:28:19.297Z,102116.28
2022-12-18T08:30:45.692Z,102118.94
2022-12-18T08:33:12.082Z,102114.47
2022-12-18T08:35:44.086Z,102121.72
2022-12-18T08:38:12.085Z,102105.13
2022-12-18T08:40:38.495Z,102085.84
2022-12-18T08:43:23.391Z,102082.06
2022-12-18T08:45:49.870Z,102086.59
2022-12-18T08:48:21.855Z,102079.19
2022-12-18T08:50:58.853Z,102067.63
2022-12-18T08:53:25.447Z,102079.09
2022-12-18T08:55:51.850Z,102082.31
2022-12-18T08:58:18.732Z,102073.19
2022-12-18T09:00:45.163Z,102069.88
2022-12-18T09:03:13.595Z,102064.25
2022-12-18T09:05:40.154Z,102065.94
2022-12-18T09:08:06.745Z,102081.22
2022-12-18T09:10:33.334Z,102079.53
2022-12-18T09:13:00.017Z,102083.47
2022-12-18T09:15:26.447Z,102076.53
2022-12-18T09:17:53.793Z,102071.50
2022-12-18T09:20:20.193Z,102064.09
2022-12-18T09:22:46.567Z,102062.91
2022-12-18T09:25:12.924Z,102051.66
2022-12-18T09:27:40.173Z,102051.78
2022-12-18T09:30:07.347Z,102039.59
2022-12-18T09:32:33.735Z,102045.88
2022-12-18T09:35:00.532Z,102049.63
2022-12-18T09:37:26.985Z,102058.25
2022-12-18T09:39:53.456Z,102057.34
2022-12-18T09:42:23.422Z,102051.03
2022-12-18T09:44:54.466Z,102035.06
2022-12-18T09:47:29.782Z,102038.63
2022-12-18T09:50:00.146Z,102044.53
2022-12-18T09:52:31.599Z,102054.47
2022-12-18T09:55:02.409Z,102048.28
2022-12-18T09:57:30.946Z,102036.44
2022-12-18T10:00:08.065Z,102033.34
2022-12-18T10:02:34.611Z,102038.72
2022-12-18T10:05:17.864Z,102037.03
2022-12-18T10:08:00.572Z,102036.50
2022-12-18T10:10:48.439Z,102027.84
2022-12-18T10:13:36.791Z,102028.56
2022-12-18T10:16:44.273Z,102018.28
2022-12-18T10:19:23.046Z,102007.41
2022-12-18T10:21:55.968Z,101995.22
2022-12-18T10:24:36.816Z,101994.38
2022-12-18T10:27:16.309Z,101987.97
2022-12-18T10:29:45.030Z,101991.22
2022-12-18T10:32:17.267Z,101999.25
2022-12-18T10:34:46.575Z,101989.13
2022-12-18T10:37:18.452Z,101979.50
2022-12-18T10:39:45.270Z,101975.09
2022-12-18T10:42:17.999Z,101962.44
2022-12-18T10:44:44.944Z,101952.09
2022-12-18T10:47:16.832Z,101945.88
2022-12-18T10:49:51.790Z,101930.69
2022-12-18T10:52:26.275Z,101934.84
2022-12-18T10:55:02.733Z,101931.59
2022-12-18T10:57:38.008Z,101928.59
2022-12-18T11:00:25.133Z,101917.50
2022-12-18T11:02:52.240Z,101919.13
2022-12-18T11:05:29.855Z,101920.72
2022-12-18T11:07:57.126Z,101929.19
2022-12-18T11:10:31.224Z,101922.72
2022-12-18T11:13:11.054Z,101917.56
2022-12-18T11:15:37.913Z,101919.78
2022-12-18T11:18:04.497Z,101916.06
2022-12-18T11:20:35.592Z,101909.56
2022-12-18T11:23:11.484Z,101896.81
2022-12-18T11:25:37.884Z,101892.91
2022-12-18T11:28:24.405Z,101890.13
2022-12-18T11:30:55.837Z,101883.41
2022-12-18T11:33:22.860Z,101879.03
2022-12-18T11:35:53.216Z,101873.66
2022-12-18T11:38:26.202Z,101875.75
2022-12-18T11:41:05.577Z,101884.47
2022-12-18T11:43:48.546Z,101878.34
2022-12-18T11:46:27.614Z,101880.25
2022-12-18T11:49:04.886Z,101866.66
2022-12-18T11:51:36.422Z,101857.47
2022-12-18T11:54:12.648Z,101845.97
2022-12-18T11:56:45.768Z,101839.13
2022-12-18T11:59:34.852Z,101832.78
2022-12-18T12:02:20.945Z,101821.16
2022-12-18T12:05:24.597Z,101821.69
2022-12-18T12:08:25.059Z,101823.53
2022-12-18T12:11:07.554Z,101821.91
2022-12-18T12:13:41.437Z,101821.78
2022-12-18T12:16:47.174Z,101820.47
2022-12-18T12:19:41.272Z,101821.16
2022-12-18T12:22:33.972Z,101810.88
2022-12-18T12:25:12.870Z,101819.72
2022-12-18T12:27:48.258Z,101810.59
2022-12-18T12:30:21.528Z,101802.88
2022-12-18T12:32:55.195Z,101803.41
2022-12-18T12:35:37.418Z,101800.16
2022-12-18T12:38:21.041Z,101797.44
2022-12-18T12:41:03.642Z,101793.34
2022-12-18T12:43:44.628Z,101792.97
2022-12-18T12:46:18.916Z,101783.13
2022-12-18T12:48:57.858Z,101781.72
2022-12-18T12:51:30.570Z,101777.25
2022-12-18T12:53:58.642Z,101771.16
2022-12-18T12:56:31.601Z,101773.41
2022-12-18T12:59:32.958Z,101775.69
2022-12-18T13:02:11.865Z,101775.41
2022-12-18T13:04:59.093Z,101767.22
2022-12-18T13:07:30.607Z,101766.78
2022-12-18T13:10:20.521Z,101768.63
2022-12-18T13:12:56.812Z,101765.75
2022-12-18T13:15:36.746Z,101767.47
2022-12-18T13:18:09.553Z,101775.47
2022-12-18T13:20:39.432Z,101761.22
2022-12-18T13:23:24.668Z,101761.56
2022-12-18T13:25:52.006Z,101760.13
2022-12-18T13:28:22.942Z,101761.41
2022-12-18T13:30:50.883Z,101751.44
2022-12-18T13:33:26.652Z,101754.16
2022-12-18T13:36:01.774Z,101750.28
2022-12-18T13:38:41.497Z,101747.03
2022-12-18T13:41:08.372Z,101749.44
2022-12-18T13:43:41.079Z,101752.56
2022-12-18T13:46:43.858Z,101751.28
2022-12-18T13:49:13.143Z,101756.47
2022-12-18T13:51:48.847Z,101755.47
2022-12-18T13:54:22.859Z,101753.94
2022-12-18T13:56:49.834Z,101755.06
2022-12-18T13:59:24.670Z,101757.19
2022-12-18T14:01:55.550Z,101759.22
2022-12-18T14:04:24.297Z,101755.78
2022-12-18T14:06:53.743Z,101749.84
2022-12-18T14:09:30.240Z,101748.44
2022-12-18T14:12:17.536Z,101752.16
2022-12-18T14:14:46.580Z,101742.75
2022-12-18T14:17:15.500Z,101732.34
2022-12-18T14:19:45.090Z,101724.19
2022-12-18T14:22:20.656Z,101731.38
2022-12-18T14:24:48.273Z,101733.38
2022-12-18T14:27:25.915Z,101721.94
2022-12-18T14:29:52.727Z,101720.88
2022-12-18T14:32:20.927Z,101710.28
2022-12-18T14:34:54.906Z,101701.06
2022-12-18T14:37:23.782Z,101702.91
2022-12-18T14:39:54.203Z,101696.84
2022-12-18T14:42:20.592Z,101692.81
2022-12-18T14:45:16.940Z,101686.34
2022-12-18T14:47:33.391Z,101676.59
2022-12-18T14:50:00.675Z,101664.69
2022-12-18T14:52:28.981Z,101676.31
2022-12-18T14:54:55.426Z,101664.25
2022-12-18T14:57:24.344Z,101663.84
2022-12-18T14:59:51.446Z,101656.44
2022-12-18T15:02:26.463Z,101645.13
2022-12-18T15:05:13.676Z,101644.03
2022-12-18T15:07:52.844Z,101634.38
2022-12-18T15:10:34.839Z,101636.31
2022-12-18T15:13:02.291Z,101630.66
2022-12-18T15:15:37.643Z,101632.19
2022-12-18T15:18:08.498Z,101637.69
2022-12-18T15:20:43.468Z,101637.91
2022-12-18T15:23:19.418Z,101639.94
2022-12-18T15:25:46.623Z,101642.69
2022-12-18T15:28:49.502Z,101623.44
2022-12-18T15:31:16.941Z,101621.28
2022-12-18T15:34:03.996Z,101623.59
2022-12-18T15:36:31.233Z,101627.28
2022-12-18T15:39:04.896Z,101631.19
2022-12-18T15:41:36.828Z,101625.78
2022-12-18T15:44:04.554Z,101622.88
2022-12-18T15:46:31.803Z,101619.56
2022-12-18T15:49:02.376Z,101617.50
2022-12-18T15:51:33.952Z,101614.44
2022-12-18T15:54:01.860Z,101615.84
2022-12-18T15:56:46.826Z,101603.28
2022-12-18T15:59:15.589Z,101611.56
2022-12-18T16:01:44.239Z,101609.31
2022-12-18T16:04:15.115Z,101604.78
2022-12-18T16:07:12.660Z,101600.69
2022-12-18T16:09:28.352Z,101609.88
2022-12-18T16:11:54.739Z,101605.22
2022-12-18T16:14:22.382Z,101604.81
2022-12-18T16:17:02.805Z,101601.53
2022-12-18T16:19:30.141Z,101599.28
2022-12-18T16:21:57.882Z,101595.72
2022-12-18T16:24:26.821Z,101597.22
2022-12-18T16:26:53.930Z,101592.03
2022-12-18T16:29:25.552Z,101603.53
2022-12-18T16:31:52.449Z,101590.84
2022-12-18T16:34:29.039Z,101591.09
2022-12-18T16:37:03.144Z,101586.03
2022-12-18T16:39:31.769Z,101588.72
2022-12-18T16:41:58.642Z,101593.19
2022-12-18T16:44:25.982Z,101597.69
2022-12-18T16:46:52.509Z,101591.38
2022-12-18T16:49:19.883Z,101596.75
2022-12-18T16:51:47.016Z,101603.16
2022-12-18T16:54:18.854Z,101597.66
2022-12-18T16:56:47.747Z,101602.06
2022-12-18T16:59:14.122Z,101594.25
2022-12-18T17:01:41.891Z,101594.25
2022-12-18T17:04:08.858Z,101595.69
2022-12-18T17:06:39.696Z,101596.03
2022-12-18T17:09:09.197Z,101594.78
2022-12-18T17:11:36.414Z,101587.97
2022-12-18T17:14:11.158Z,101583.94
2022-12-18T17:16:37.562Z,101594.69
2022-12-18T17:19:05.880Z,101583.94
2022-12-18T17:21:32.261Z,101583.94
2022-12-18T17:24:02.072Z,101582.41
2022-12-18T17:26:29.296Z,101574.28
2022-12-18T17:28:59.268Z,101565.66
2022-12-18T17:31:27.681Z,101555.88
2022-12-18T17:33:54.496Z,101553.00
2022-12-18T17:36:21.403Z,101545.19
2022-12-18T17:38:53.997Z,101552.94
2022-12-18T17:41:20.906Z,101546.84
2022-12-18T17:43:54.583Z,101538.81
2022-12-18T17:46:21.135Z,101533.97
2022-12-18T17:48:47.885Z,101532.41
2022-12-18T17:51:17.469Z,101526.28
2022-12-18T17:53:44.585Z,101543.97
2022-12-18T17:56:13.833Z,101545.50
2022-12-18T17:58:40.770Z,101551.41
2022-12-18T18:01:07.402Z,101550.78
2022-12-18T18:03:34.663Z,101543.31
2022-12-18T18:06:02.424Z,101552.06
2022-12-18T18:08:29.349Z,101556.13
2022-12-18T18:11:16.046Z,101544.19
2022-12-18T18:14:00.802Z,101551.41
2022-12-18T18:16:49.918Z,101551.19
2022-12-18T18:19:19.349Z,101547.16
2022-12-18T18:21:47.280Z,101545.31
2022-12-18T18:24:17.027Z,101535.00
2022-12-18T18:26:43.973Z,101543.34
2022-12-18T18:29:15.651Z,101540.63
2022-12-18T18:31:42.205Z,101537.59
2022-12-18T18:34:14.512Z,101532.78
2022-12-18T18:36:40.797Z,101538.44
2022-12-18T18:39:07.193Z,101539.72
2022-12-18T18:41:35.529Z,101534.34
2022-12-18T18:44:01.914Z,101532.38
2022-12-18T18:46:28.291Z,101535.00
2022-12-18T18:48:55.199Z,101557.06
2022-12-18T18:51:22.461Z,101553.69
2022-12-18T18:53:50.839Z,101551.38
2022-12-18T18:56:56.267Z,101554.91
2022-12-18T18:59:06.065Z,101550.19
2022-12-18T19:01:33.008Z,101551.84
2022-12-18T19:04:00.701Z,101549.69
2022-12-18T19:06:28.402Z,101563.16
2022-12-18T19:08:56.402Z,101560.31
2022-12-18T19:11:42.867Z,101563.19
2022-12-18T19:14:11.340Z,101562.19
2022-12-18T19:16:38.214Z,101555.88
2022-12-18T19:19:05.113Z,101554.47
2022-12-18T19:21:34.237Z,101561.59
2022-12-18T19:24:02.347Z,101561.78
2022-12-18T19:26:29.078Z,101563.72
2022-12-18T19:29:01.860Z,101553.69
2022-12-18T19:31:34.777Z,101566.81
2022-12-18T19:34:02.404Z,101574.56
2022-12-18T19:36:29.899Z,101577.44
2022-12-18T19:38:58.761Z,101571.31
2022-12-18T19:41:25.681Z,101574.56
2022-12-18T19:43:55.348Z,101556.03
2022-12-18T19:46:22.913Z,101549.16
2022-12-18T19:48:50.008Z,101541.41
2022-12-18T19:51:24.615Z,101550.78
2022-12-18T19:53:57.843Z,101538.88
2022-12-18T19:56:26.804Z,101539.91
2022-12-18T19:58:53.814Z,101528.72
2022-12-18T20:01:22.717Z,101529.00
2022-12-18T20:03:52.751Z,101527.81
2022-12-18T20:06:45.956Z,101528.41
2022-12-18T20:09:12.436Z,101539.19
2022-12-18T20:11:41.983Z,101531.66
2022-12-18T20:14:10.247Z,101532.53
2022-12-18T20:16:36.787Z,101539.28
2022-12-18T20:19:04.081Z,101534.81
2022-12-18T20:21:30.665Z,101526.38
2022-12-18T20:23:57.179Z,101531.97
2022-12-18T20:26:24.747Z,101537.63
2022-12-18T20:28:51.700Z,101539.72
2022-12-18T20:31:18.098Z,101533.97
2022-12-18T20:33:47.599Z,101520.72
2022-12-18T20:36:21.130Z,101529.00
2022-12-18T20:38:49.442Z,101528.88
2022-12-18T20:41:18.610Z,101527.28
2022-12-18T20:43:45.695Z,101529.19
2022-12-18T20:46:13.547Z,101529.50
2022-12-18T20:48:40.271Z,101530.97
2022-12-18T20:51:09.447Z,101537.09
2022-12-18T20:53:36.144Z,101532.78
2022-12-18T20:56:08.680Z,101541.19
2022-12-18T20:58:35.643Z,101535.59
2022-12-18T21:01:04.612Z,101540.16
2022-12-18T21:03:31.106Z,101537.28
2022-12-18T21:05:57.538Z,101537.75
2022-12-18T21:08:23.920Z,101534.41
2022-12-18T21:10:50.371Z,101534.22
2022-12-18T21:13:17.306Z,101531.47
2022-12-18T21:15:45.022Z,101528.19
2022-12-18T21:18:11.482Z,101538.66
2022-12-18T21:20:38.060Z,101537.47
2022-12-18T21:23:16.001Z,101546.25
2022-12-18T21:25:43.642Z,101534.88
2022-12-18T21:28:10.009Z,101533.84
2022-12-18T21:30:36.573Z,101541.66
2022-12-18T21:33:03.088Z,101536.25
2022-12-18T21:35:29.475Z,101536.94
2022-12-18T21:37:58.719Z,101532.66
2022-12-18T21:40:25.147Z,101534.88
2022-12-18T21:43:10.234Z,101532.91
2022-12-18T21:45:39.663Z,101533.75
2022-12-18T21:48:06.151Z,101532.19
2022-12-18T21:50:32.514Z,101525.91
2022-12-18T21:52:58.887Z,101521.28
2022-12-18T21:55:25.612Z,101529.44
2022-12-18T21:57:53.690Z,101522.66
2022-12-18T22:00:20.175Z,101510.91
2022-12-18T22:02:47.663Z,101504.56
2022-12-18T22:05:14.278Z,101507.94
2022-12-18T22:07:40.712Z,101511.09
2022-12-18T22:10:07.796Z,101507.88
2022-12-18T22:12:39.790Z,101505.25
2022-12-18T22:15:11.823Z,101508.59
2022-12-18T22:17:40.289Z,101504.19
2022-12-18T22:20:09.168Z,101506.91
2022-12-18T22:22:35.632Z,101506.25
2022-12-18T22:25:02.272Z,101503.50
2022-12-18T22:27:28.627Z,101493.16
2022-12-18T22:30:03.985Z,101498.13
2022-12-18T22:32:35.063Z,101484.16
2022-12-18T22:35:08.392Z,101486.25
2022-12-18T22:37:39.212Z,101481.06
2022-12-18T22:40:07.215Z,101480.63
2022-12-18T22:42:33.943Z,101476.50
2022-12-18T22:45:00.518Z,101470.75
2022-12-18T22:47:30.053Z,101467.50
2022-12-18T22:49:56.709Z,101463.31
2022-12-18T22:52:24.906Z,101464.97
2022-12-18T22:54:53.675Z,101469.25
2022-12-18T22:57:21.499Z,101473.66
2022-12-18T22:59:47.939Z,101474.66
2022-12-18T23:02:14.452Z,101466.72
2022-12-18T23:04:41.029Z,101473.81
2022-12-18T23:07:07.389Z,101462.88
2022-12-18T23:09:33.885Z,101457.81
2022-12-18T23:12:00.860Z,101452.38
2022-12-18T23:14:28.089Z,101443.47
2022-12-18T23:16:54.486Z,101447.25
2022-12-18T23:19:23.607Z,101442.69
2022-12-18T23:21:50.603Z,101436.13
2022-12-18T23:24:17.003Z,101436.28
2022-12-18T23:26:43.403Z,101432.69
2022-12-18T23:29:09.830Z,101429.41
2022-12-18T23:31:38.469Z,101428.31
2022-12-18T23:34:06.028Z,101411.69
2022-12-18T23:36:33.976Z,101412.28
2022-12-18T23:39:11.418Z,101398.81
2022-12-18T23:41:38.811Z,101396.22
2022-12-18T23:44:05.179Z,101390.69
2022-12-18T23:46:33.769Z,101391.91
2022-12-18T23:49:02.439Z,101402.31
2022-12-18T23:51:29.610Z,101387.94
2022-12-18T23:53:58.083Z,101388.50
2022-12-18T23:56:25.661Z,101378.47
2022-12-18T23:58:52.883Z,101379.19
